Time;durP1;ratioP1;P1;durP2;ratioP2;P2;SDS_P1;SDS_P2;PMS_P1;PMS_P2;Temp;Humidity;BMP_temperature;BMP_pressure;BME280_temperature;BME280_humidity;BME280_pressure;Samples;Min_cycle;Max_cycle;Signal;HPM_P1;HPM_P2
2022/11/04 00:02:46;;;;;;;38.00;17.57;;;8.80;99.90;;;;;;10405277;28;20042;-78
2022/11/04 00:13:06;;;;;;;33.33;16.40;;;8.70;99.90;;;;;;10401846;28;20622;-79
2022/11/04 00:29:23;;;;;;;34.97;15.67;;;8.50;99.90;;;;;;10389141;28;19913;-79
2022/11/04 00:34:24;;;;;;;27.50;14.60;;;8.40;99.90;;;;;;10401437;28;20065;-76
2022/11/04 00:39:24;;;;;;;29.07;14.77;;;8.40;99.90;;;;;;10402480;28;20057;-79
2022/11/04 00:44:25;;;;;;;28.93;15.60;;;8.30;99.90;;;;;;10403476;28;20033;-78
2022/11/04 00:49:25;;;;;;;31.13;14.57;;;8.40;99.90;;;;;;10388280;28;20037;-77
2022/11/04 00:54:26;;;;;;;30.77;15.07;;;8.30;99.90;;;;;;10398546;28;20037;-78
2022/11/04 00:59:26;;;;;;;27.80;14.57;;;8.20;99.90;;;;;;10402364;28;20040;-81
2022/11/04 01:04:27;;;;;;;29.30;14.77;;;8.30;99.90;;;;;;10408392;28;20031;-80
2022/11/04 01:09:28;;;;;;;25.73;13.90;;;8.30;99.90;;;;;;10408401;28;20033;-78
2022/11/04 01:14:28;;;;;;;36.50;15.93;;;8.30;99.90;;;;;;10393495;28;20041;-78
2022/11/04 01:19:29;;;;;;;32.40;15.37;;;8.40;99.90;;;;;;10411887;28;20057;-77
2022/11/04 01:24:29;;;;;;;27.17;13.73;;;8.50;99.90;;;;;;10411565;28;20029;-78
2022/11/04 01:29:30;;;;;;;24.73;14.37;;;8.60;99.90;;;;;;10411158;28;20466;-78
2022/11/04 01:34:30;;;;;;;27.87;13.30;;;8.80;99.90;;;;;;10411101;28;20045;-78
2022/11/04 01:39:31;;;;;;;31.57;15.00;;;8.80;99.90;;;;;;10410722;28;20054;-78
2022/11/04 01:44:40;;;;;;;28.13;13.97;;;8.80;99.90;;;;;;10401403;28;20034;-78
2022/11/04 01:49:41;;;;;;;31.90;14.97;;;8.80;99.90;;;;;;10394052;28;20121;-78
2022/11/04 01:54:45;;;;;;;30.80;14.83;;;8.70;99.90;;;;;;10421946;23;20060;-80
2022/11/04 01:59:46;;;;;;;35.23;17.77;;;8.70;99.90;;;;;;10437966;28;20041;-78
2022/11/04 02:04:47;;;;;;;30.33;14.70;;;8.70;99.90;;;;;;10449921;28;20090;-79
2022/11/04 02:09:48;;;;;;;33.03;16.70;;;8.70;99.90;;;;;;10448591;28;20039;-78
2022/11/04 02:14:50;;;;;;;30.20;14.43;;;8.70;99.90;;;;;;10437785;28;20033;-78
2022/11/04 02:20:12;;;;;;;25.13;12.87;;;8.80;99.90;;;;;;10450152;28;20037;-82
2022/11/04 02:25:33;;;;;;;25.37;12.73;;;8.80;99.90;;;;;;10424094;28;20094;-78
2022/11/04 02:30:38;;;;;;;26.43;12.73;;;8.70;99.90;;;;;;10445266;28;20049;-78
2022/11/04 02:35:47;;;;;;;26.05;11.90;;;8.70;99.90;;;;;;10450250;28;20029;-78
2022/11/04 02:40:59;;;;;;;26.33;13.60;;;8.80;99.90;;;;;;10420672;28;20108;-78
2022/11/04 02:46:35;;;;;;;22.73;11.53;;;8.80;99.90;;;;;;10440301;28;20036;-77
2022/11/04 02:51:46;;;;;;;31.57;13.77;;;8.90;99.90;;;;;;10433135;28;20045;-78
2022/11/04 02:56:51;;;;;;;28.83;14.13;;;8.90;99.90;;;;;;10436543;28;20143;-78
2022/11/04 03:01:54;;;;;;;30.27;14.93;;;9.00;99.90;;;;;;10427325;28;20037;-82
2022/11/04 03:06:57;;;;;;;28.73;14.87;;;9.00;99.90;;;;;;10432986;28;20435;-78
2022/11/04 03:12:04;;;;;;;24.90;13.47;;;9.00;99.90;;;;;;10445498;28;20040;-78
2022/11/04 03:17:54;;;;;;;26.17;12.37;;;9.00;99.90;;;;;;10441891;28;20499;-78
2022/11/04 03:22:58;;;;;;;25.20;12.87;;;9.00;99.90;;;;;;10416161;28;20045;-77
2022/11/04 03:28:23;;;;;;;23.87;11.37;;;9.00;99.90;;;;;;10447881;28;20028;-78
2022/11/04 03:33:27;;;;;;;28.83;12.67;;;8.90;99.90;;;;;;10438732;28;20041;-78
2022/11/04 03:38:28;;;;;;;22.50;11.53;;;8.80;99.90;;;;;;10441778;28;20039;-81
2022/11/04 03:43:29;;;;;;;27.80;14.80;;;8.70;99.90;;;;;;10443122;28;20025;-79
2022/11/04 03:48:30;;;;;;;27.13;13.03;;;8.70;99.90;;;;;;10440618;28;20032;-82
2022/11/04 03:53:31;;;;;;;23.50;13.13;;;8.70;99.90;;;;;;10443361;28;20520;-79
2022/11/04 03:58:46;;;;;;;30.23;13.87;;;8.70;99.90;;;;;;10445843;28;20041;-79
2022/11/04 04:04:00;;;;;;;20.13;11.20;;;8.70;99.90;;;;;;10439019;28;20037;-80
2022/11/04 04:09:23;;;;;;;22.07;11.17;;;8.60;99.90;;;;;;10446643;28;20032;-80
2022/11/04 04:19:43;;;;;;;21.77;11.33;;;8.50;99.90;;;;;;10441069;28;20057;-79
2022/11/04 04:30:12;;;;;;;24.97;11.37;;;8.20;99.90;;;;;;10445453;28;20048;-80
2022/11/04 04:45:54;;;;;;;25.20;11.53;;;8.00;99.90;;;;;;10408667;23;20460;-78
2022/11/04 04:50:56;;;;;;;20.23;10.80;;;7.90;99.90;;;;;;10395519;28;20034;-78
2022/11/04 04:55:56;;;;;;;25.13;11.67;;;7.90;99.90;;;;;;10392773;28;20109;-78
2022/11/04 05:00:57;;;;;;;22.20;11.27;;;7.80;99.90;;;;;;10399933;28;20752;-80
2022/11/04 05:05:58;;;;;;;19.97;10.93;;;7.70;99.90;;;;;;10401660;28;20029;-78
2022/11/04 05:10:59;;;;;;;23.60;12.77;;;7.70;99.90;;;;;;10401769;28;20029;-78
2022/11/04 05:16:08;;;;;;;26.63;11.87;;;7.60;99.90;;;;;;10394787;28;20029;-80
2022/11/04 05:21:12;;;;;;;21.93;10.97;;;7.60;99.90;;;;;;10400318;28;20017;-76
2022/11/04 05:26:13;;;;;;;24.30;11.53;;;7.50;99.90;;;;;;10399500;28;20511;-78
2022/11/04 05:31:14;;;;;;;22.43;11.37;;;7.50;99.90;;;;;;10399621;28;20029;-77
2022/11/04 05:36:16;;;;;;;25.20;12.30;;;7.50;99.90;;;;;;10401522;28;20554;-81
2022/11/04 05:41:24;;;;;;;24.33;12.30;;;7.60;99.90;;;;;;10398049;28;20029;-78
2022/11/04 05:46:26;;;;;;;25.13;12.83;;;7.70;99.90;;;;;;10400870;28;20140;-78
2022/11/04 05:51:28;;;;;;;30.63;14.80;;;7.70;99.90;;;;;;10409647;28;20084;-78
2022/11/04 05:56:28;;;;;;;34.43;14.30;;;7.80;99.90;;;;;;10390589;28;20037;-79
2022/11/04 06:01:34;;;;;;;26.30;13.63;;;7.90;99.90;;;;;;10400023;28;20030;-78
2022/11/04 06:06:35;;;;;;;33.07;15.90;;;8.00;99.90;;;;;;10406830;28;20029;-77
2022/11/04 06:11:37;;;;;;;32.53;15.77;;;8.10;99.90;;;;;;10407730;28;20046;-78
2022/11/04 06:16:38;;;;;;;37.37;14.90;;;8.10;99.90;;;;;;10406553;28;20025;-78
2022/11/04 06:21:38;;;;;;;31.97;16.47;;;8.10;99.90;;;;;;10406033;28;20099;-78
2022/11/04 06:26:39;;;;;;;32.93;15.93;;;8.10;99.90;;;;;;10400904;28;20029;-78
2022/11/04 06:31:39;;;;;;;34.50;17.30;;;8.10;99.90;;;;;;10405047;28;20045;-78
2022/11/04 06:36:40;;;;;;;36.53;18.77;;;8.20;99.90;;;;;;10401681;28;20049;-78
2022/11/04 06:41:40;;;;;;;36.47;18.30;;;8.40;99.90;;;;;;10402031;28;20042;-78
2022/11/04 06:46:42;;;;;;;70.93;36.23;;;8.60;99.90;;;;;;10405176;28;20057;-79
2022/11/04 06:51:43;;;;;;;66.00;32.97;;;8.80;99.90;;;;;;10398240;28;20048;-78
2022/11/04 06:56:44;;;;;;;53.37;25.80;;;9.00;99.90;;;;;;10395087;28;20401;-78
2022/11/04 07:01:45;;;;;;;45.97;20.43;;;9.30;99.90;;;;;;10398611;28;20059;-78
2022/11/04 07:06:46;;;;;;;33.57;15.97;;;9.40;99.90;;;;;;10406460;28;20037;-78
2022/11/04 07:11:47;;;;;;;26.30;13.03;;;9.60;99.90;;;;;;10405513;28;20444;-79
2022/11/04 07:16:50;;;;;;;24.83;12.60;;;9.80;99.90;;;;;;10406582;28;20110;-78
2022/11/04 07:21:50;;;;;;;25.40;11.65;;;10.00;99.90;;;;;;10407445;28;20040;-81
2022/11/04 07:26:54;;;;;;;23.10;10.18;;;10.30;99.90;;;;;;10401700;28;20473;-78
2022/11/04 07:31:54;;;;;;;24.05;10.00;;;10.50;99.90;;;;;;10394253;28;20493;-77
2022/11/04 07:36:55;;;;;;;22.08;11.93;;;10.90;99.90;;;;;;10397194;28;20038;-77
2022/11/04 07:41:56;;;;;;;17.35;9.15;;;11.30;99.90;;;;;;10403268;28;20107;-82
2022/11/04 07:46:56;;;;;;;15.35;9.48;;;11.50;99.90;;;;;;10396891;28;20033;-78
2022/11/04 07:51:57;;;;;;;15.95;8.25;;;11.60;99.90;;;;;;10404804;28;20049;-80
2022/11/04 07:56:57;;;;;;;17.00;7.40;;;11.60;99.90;;;;;;10403539;28;20044;-78
2022/11/04 08:01:58;;;;;;;13.23;6.82;;;11.60;99.90;;;;;;10395970;28;20117;-78
2022/11/04 08:06:58;;;;;;;17.25;7.43;;;11.80;99.90;;;;;;10397626;28;20029;-78
2022/11/04 08:11:59;;;;;;;14.65;7.45;;;12.20;99.90;;;;;;10400527;28;20564;-82
2022/11/04 08:16:59;;;;;;;27.08;14.80;;;12.30;99.90;;;;;;10396741;28;20496;-78
2022/11/04 08:22:00;;;;;;;20.08;11.93;;;12.30;99.90;;;;;;10404127;28;20037;-78
2022/11/04 08:27:01;;;;;;;17.77;8.45;;;12.20;99.90;;;;;;10402997;28;20128;-80
2022/11/04 08:32:02;;;;;;;15.18;7.75;;;12.10;99.90;;;;;;10397345;28;20037;-77
2022/11/04 08:37:03;;;;;;;16.83;8.70;;;12.00;99.90;;;;;;10402024;28;20071;-78
2022/11/04 08:42:03;;;;;;;15.68;8.20;;;11.90;99.90;;;;;;10397479;28;20120;-78
2022/11/04 08:47:04;;;;;;;16.92;9.27;;;11.90;99.90;;;;;;10398922;28;20172;-78
2022/11/04 08:52:05;;;;;;;21.58;8.77;;;11.90;99.90;;;;;;10401775;28;20052;-77
2022/11/04 08:57:07;;;;;;;22.60;9.65;;;12.00;99.90;;;;;;10402785;28;20029;-78
2022/11/04 09:02:13;;;;;;;18.38;9.75;;;12.00;99.90;;;;;;10395345;28;20033;-78
2022/11/04 09:07:13;;;;;;;19.77;9.10;;;12.10;99.90;;;;;;10400901;28;20051;-78
2022/11/04 09:12:14;;;;;;;21.17;9.70;;;12.20;99.40;;;;;;10403396;28;20033;-80
2022/11/04 09:17:15;;;;;;;17.02;8.27;;;12.20;99.00;;;;;;10391053;28;20030;-81
2022/11/04 09:22:16;;;;;;;16.00;8.13;;;12.30;99.30;;;;;;10405894;28;20098;-80
2022/11/04 09:27:17;;;;;;;13.55;7.22;;;12.40;99.20;;;;;;10411666;28;20056;-79
2022/11/04 09:32:17;;;;;;;22.80;10.00;;;12.50;99.80;;;;;;10403890;28;20142;-81
2022/11/04 09:37:18;;;;;;;31.83;17.08;;;12.50;99.60;;;;;;10408901;28;20042;-79
2022/11/04 09:42:52;;;;;;;39.13;19.48;;;12.50;99.80;;;;;;10405638;28;20064;-78
2022/11/04 09:48:03;;;;;;;34.92;23.52;;;12.60;99.20;;;;;;10394320;28;20076;-78
2022/11/04 09:53:16;;;;;;;40.75;31.60;;;12.60;99.00;;;;;;10404071;28;20547;-78
2022/11/04 09:58:17;;;;;;;17.98;9.68;;;12.70;99.40;;;;;;10403931;28;20420;-78
2022/11/04 10:03:39;;;;;;;20.13;10.50;;;12.70;98.30;;;;;;10410233;28;20028;-78
2022/11/04 10:09:00;;;;;;;57.67;24.38;;;12.90;99.10;;;;;;10409697;28;20040;-82
2022/11/04 10:14:19;;;;;;;38.08;20.30;;;13.00;99.20;;;;;;10402814;28;20021;-79
2022/11/04 10:20:01;;;;;;;19.95;9.88;;;13.10;99.40;;;;;;10400547;28;20171;-78
2022/11/04 10:25:09;;;;;;;15.02;8.63;;;13.20;97.10;;;;;;10370069;28;20045;-79
2022/11/04 10:30:17;;;;;;;25.80;12.70;;;13.20;98.70;;;;;;10399810;28;20077;-78
2022/11/04 10:35:30;;;;;;;18.33;9.73;;;13.20;99.30;;;;;;10391795;28;20029;-78
2022/11/04 10:40:35;;;;;;;20.25;11.60;;;13.40;99.30;;;;;;10407627;28;20033;-78
2022/11/04 10:46:00;;;;;;;18.08;10.85;;;13.60;98.80;;;;;;10398596;28;20053;-78
2022/11/04 10:51:01;;;;;;;22.03;9.83;;;13.80;98.00;;;;;;10404486;28;20716;-80
2022/11/04 10:56:27;;;;;;;52.33;20.70;;;14.10;97.80;;;;;;10405082;28;20120;-78
2022/11/04 11:01:34;;;;;;;63.63;24.00;;;14.20;97.40;;;;;;10376703;28;20036;-79
2022/11/04 11:06:36;;;;;;;60.83;22.40;;;14.30;97.60;;;;;;10407853;28;20320;-78
2022/11/04 11:11:46;;;;;;;20.98;12.00;;;14.30;97.80;;;;;;10404984;28;20094;-79
2022/11/04 11:16:47;;;;;;;29.98;18.70;;;14.30;95.60;;;;;;10394614;28;20470;-82
2022/11/04 11:21:55;;;;;;;29.17;16.25;;;14.30;96.90;;;;;;10395164;28;20037;-79
2022/11/04 11:27:02;;;;;;;36.70;18.67;;;14.30;96.70;;;;;;10406979;28;20025;-79
2022/11/04 11:32:04;;;;;;;42.75;17.15;;;14.30;97.70;;;;;;10392397;28;20033;-78
2022/11/04 11:37:23;;;;;;;34.88;15.95;;;14.30;97.40;;;;;;10404099;28;20059;-79
2022/11/04 11:42:25;;;;;;;33.80;15.93;;;14.30;97.00;;;;;;10404648;28;20057;-80
2022/11/04 11:47:28;;;;;;;33.03;15.05;;;14.30;98.20;;;;;;10405092;28;20366;-80
2022/11/04 11:52:28;;;;;;;25.67;13.05;;;14.30;98.10;;;;;;10403472;28;20675;-76
2022/11/04 11:57:48;;;;;;;23.48;12.10;;;14.40;99.40;;;;;;10405100;28;20033;-78
2022/11/04 12:02:56;;;;;;;24.80;12.82;;;14.60;96.80;;;;;;10400568;28;20061;-77
2022/11/04 12:08:13;;;;;;;25.75;12.32;;;14.50;96.50;;;;;;10405109;28;20094;-78
2022/11/04 12:13:26;;;;;;;24.45;13.25;;;14.40;95.80;;;;;;10404019;28;20048;-78
2022/11/04 12:18:52;;;;;;;27.10;14.98;;;14.40;95.00;;;;;;10388367;28;20124;-77
2022/11/04 12:23:59;;;;;;;29.42;14.70;;;14.30;94.80;;;;;;10400227;28;20653;-78
2022/11/04 12:29:09;;;;;;;25.20;14.18;;;14.20;95.20;;;;;;10401711;28;20053;-81
2022/11/04 12:34:37;;;;;;;27.52;15.02;;;14.20;95.80;;;;;;10389472;28;20095;-77
2022/11/04 12:40:04;;;;;;;25.35;13.30;;;14.40;95.80;;;;;;10398832;28;20092;-78
2022/11/04 12:45:33;;;;;;;28.50;12.45;;;14.60;96.50;;;;;;10397319;28;20060;-78
2022/11/04 12:50:38;;;;;;;25.58;12.90;;;14.70;95.00;;;;;;10386756;28;20183;-78
2022/11/04 12:56:11;;;;;;;25.02;12.48;;;14.80;96.10;;;;;;10399546;28;20080;-80
2022/11/04 13:01:20;;;;;;;41.45;18.25;;;14.90;96.70;;;;;;10363812;28;20037;-78
2022/11/04 13:06:42;;;;;;;85.00;34.13;;;15.00;96.60;;;;;;10393761;28;20022;-79
2022/11/04 13:11:49;;;;;;;50.53;22.35;;;15.00;95.80;;;;;;10398866;28;20037;-79
2022/11/04 13:16:51;;;;;;;33.38;20.17;;;14.90;96.70;;;;;;10402494;28;20065;-79
2022/11/04 13:21:53;;;;;;;28.10;15.52;;;14.80;95.70;;;;;;10403728;28;20026;-78
2022/11/04 13:26:57;;;;;;;21.58;13.55;;;14.90;96.50;;;;;;10393621;28;20056;-82
2022/11/04 13:31:57;;;;;;;20.63;12.68;;;14.80;94.80;;;;;;10398061;28;20452;-80
2022/11/04 13:37:07;;;;;;;18.60;9.85;;;14.80;96.10;;;;;;10398366;28;20113;-79
2022/11/04 13:42:20;;;;;;;24.63;13.35;;;14.70;95.30;;;;;;10400129;28;20065;-80
2022/11/04 13:47:26;;;;;;;22.70;12.07;;;14.60;95.00;;;;;;10392769;28;20018;-80
2022/11/04 13:52:30;;;;;;;20.05;11.88;;;14.60;95.60;;;;;;10398941;28;20049;-78
2022/11/04 13:57:56;;;;;;;39.15;25.08;;;14.50;95.50;;;;;;10401139;28;20037;-78
2022/11/04 14:02:58;;;;;;;20.27;13.20;;;14.50;95.60;;;;;;10395955;28;20125;-81
2022/11/04 14:08:02;;;;;;;21.05;14.98;;;14.40;95.20;;;;;;10404541;28;20033;-77
2022/11/04 14:13:28;;;;;;;34.45;24.50;;;14.40;95.30;;;;;;10398573;28;20049;-78
2022/11/04 14:18:29;;;;;;;;;;;14.30;95.10;;;;;;10403355;28;20585;-78
2022/11/04 14:23:31;;;;;;;17.92;10.00;;;14.20;95.10;;;;;;10409810;28;19963;-78
2022/11/04 14:28:33;;;;;;;27.75;16.38;;;14.20;95.80;;;;;;10401863;28;20025;-80
2022/11/04 14:33:36;;;;;;;49.15;28.05;;;14.10;96.50;;;;;;10387888;28;20617;-82
2022/11/04 14:38:36;;;;;;;31.38;18.98;;;13.90;97.30;;;;;;10403798;28;20033;-80
2022/11/04 14:43:42;;;;;;;29.58;17.02;;;13.80;97.70;;;;;;10408322;28;20045;-81
2022/11/04 14:48:50;;;;;;;27.83;16.58;;;13.80;98.10;;;;;;10401757;28;20022;-77
2022/11/04 14:54:04;;;;;;;29.88;18.45;;;13.70;98.60;;;;;;10406336;28;20811;-80
2022/11/04 14:59:06;;;;;;;33.90;20.40;;;13.60;99.50;;;;;;10403904;28;20049;-78
2022/11/04 15:04:26;;;;;;;50.22;30.92;;;13.50;99.90;;;;;;10402478;28;20570;-78
2022/11/04 15:09:34;;;;;;;141.25;79.47;;;13.50;99.90;;;;;;10401186;28;20111;-80
2022/11/04 15:14:36;;;;;;;116.72;64.80;;;13.40;99.90;;;;;;10406662;28;20037;-78
2022/11/04 15:19:36;;;;;;;118.10;62.13;;;13.30;99.90;;;;;;10375500;28;20031;-79
2022/11/04 15:24:40;;;;;;;107.78;57.22;;;13.20;99.90;;;;;;10393957;28;20033;-80
2022/11/04 15:30:02;;;;;;;75.82;42.20;;;13.10;99.90;;;;;;10393065;28;20393;-78
2022/11/04 15:35:03;;;;;;;52.13;27.38;;;13.10;99.90;;;;;;10401630;28;20037;-78
2022/11/04 15:40:05;;;;;;;45.33;23.23;;;13.00;99.90;;;;;;10401564;28;20037;-80
2022/11/04 15:45:21;;;;;;;36.97;19.75;;;12.90;99.90;;;;;;10405685;28;20053;-80
2022/11/04 15:50:24;;;;;;;40.30;20.58;;;12.90;99.90;;;;;;10403865;28;20038;-80
2022/11/04 15:55:26;;;;;;;41.50;21.55;;;12.90;99.90;;;;;;10402081;28;20091;-80
2022/11/04 16:00:27;;;;;;;35.40;18.92;;;12.80;99.90;;;;;;10395834;28;20026;-80
2022/11/04 16:05:32;;;;;;;37.58;18.02;;;12.70;99.90;;;;;;10403755;28;20027;-78
2022/11/04 16:10:35;;;;;;;46.63;23.42;;;12.70;99.90;;;;;;10386151;28;20129;-77
2022/11/04 16:15:43;;;;;;;42.60;21.75;;;12.60;99.90;;;;;;10380993;28;20017;-78
2022/11/04 16:20:47;;;;;;;43.05;21.77;;;12.60;99.90;;;;;;10394063;28;20366;-80
2022/11/04 16:25:57;;;;;;;42.92;20.75;;;12.60;99.90;;;;;;10395120;28;20059;-81
2022/11/04 16:31:04;;;;;;;40.65;20.08;;;12.50;99.90;;;;;;10396915;28;20067;-78
2022/11/04 16:36:12;;;;;;;33.97;19.10;;;12.50;99.90;;;;;;10394218;28;20022;-79
2022/11/04 16:41:13;;;;;;;32.13;17.77;;;12.50;99.90;;;;;;10402116;28;20051;-78
2022/11/04 16:46:14;;;;;;;29.52;14.63;;;12.40;99.90;;;;;;10394729;28;20061;-78
2022/11/04 16:51:20;;;;;;;34.00;17.05;;;12.50;99.90;;;;;;10389891;28;20143;-81
2022/11/04 16:56:23;;;;;;;36.38;18.25;;;12.50;99.90;;;;;;10397972;28;20025;-78
2022/11/04 17:01:24;;;;;;;41.97;22.20;;;12.40;99.90;;;;;;10403641;28;20029;-81
2022/11/04 17:06:25;;;;;;;55.35;27.42;;;12.40;99.90;;;;;;10404487;28;20037;-79
2022/11/04 17:11:25;;;;;;;62.50;30.85;;;12.30;99.90;;;;;;10401130;28;20041;-82
2022/11/04 17:16:26;;;;;;;89.93;43.97;;;12.30;99.90;;;;;;10395203;28;20094;-78
2022/11/04 17:21:27;;;;;;;88.55;44.00;;;12.20;99.90;;;;;;10399001;28;20061;-80
2022/11/04 17:26:27;;;;;;;88.50;47.00;;;12.20;99.90;;;;;;10398229;28;20601;-78
2022/11/04 17:31:28;;;;;;;94.28;51.95;;;12.20;99.90;;;;;;10400403;28;20103;-80
2022/11/04 17:36:29;;;;;;;86.55;47.10;;;12.20;99.90;;;;;;10402318;28;20037;-78
2022/11/04 17:46:48;;;;;;;95.78;51.22;;;12.10;99.90;;;;;;10420233;23;20053;-78
2022/11/04 17:51:54;;;;;;;101.63;53.25;;;12.10;99.90;;;;;;10408761;28;20037;-78
2022/11/04 17:56:56;;;;;;;164.18;72.93;;;12.00;99.90;;;;;;10402308;28;20480;-80
2022/11/04 18:01:57;;;;;;;130.43;69.38;;;12.00;99.90;;;;;;10409157;28;20525;-78
2022/11/04 18:07:44;;;;;;;125.72;65.72;;;12.00;99.90;;;;;;10408946;28;20045;-78
2022/11/04 18:12:44;;;;;;;100.82;51.60;;;11.90;99.90;;;;;;10404920;28;20099;-81
2022/11/04 18:17:45;;;;;;;76.32;40.47;;;12.00;99.90;;;;;;10403078;28;20038;-79
2022/11/04 18:22:46;;;;;;;67.35;36.08;;;12.00;99.90;;;;;;10408853;28;20033;-77
2022/11/04 18:27:47;;;;;;;95.35;42.80;;;12.00;99.90;;;;;;10401518;28;20131;-78
2022/11/04 18:32:48;;;;;;;78.68;34.55;;;12.10;99.90;;;;;;10401734;28;20064;-78
2022/11/04 18:37:49;;;;;;;71.25;33.85;;;12.10;99.90;;;;;;10402498;28;20033;-76
2022/11/04 18:42:49;;;;;;;41.50;22.48;;;12.20;99.90;;;;;;10400658;28;20115;-78
2022/11/04 18:47:50;;;;;;;42.83;25.65;;;12.20;99.90;;;;;;10398218;28;20045;-78
2022/11/04 18:52:54;;;;;;;39.03;21.52;;;12.20;99.90;;;;;;10396371;28;20077;-77
2022/11/04 18:57:55;;;;;;;46.53;26.05;;;12.10;99.90;;;;;;10400579;28;20642;-80
2022/11/04 19:02:55;;;;;;;42.13;23.35;;;12.10;99.90;;;;;;10402202;28;20033;-78
2022/11/04 19:07:56;;;;;;;64.03;37.20;;;12.00;99.90;;;;;;10402340;28;20455;-79
2022/11/04 19:18:16;;;;;;;47.00;25.40;;;11.80;99.90;;;;;;10400728;28;20033;-80
2022/11/04 19:23:17;;;;;;;48.80;27.70;;;11.70;99.90;;;;;;10399767;28;20456;-78
2022/11/04 19:28:17;;;;;;;63.70;33.90;;;11.70;99.90;;;;;;10386964;28;20033;-80
2022/11/04 19:33:18;;;;;;;94.47;48.40;;;11.70;99.90;;;;;;10405483;28;20045;-81
2022/11/04 19:38:20;;;;;;;67.40;36.97;;;11.70;99.90;;;;;;10400064;28;20036;-81
2022/11/04 19:43:22;;;;;;;52.35;31.60;;;11.70;99.90;;;;;;10403393;28;20131;-81
2022/11/04 19:48:22;;;;;;;45.30;25.98;;;11.70;99.90;;;;;;10395292;28;20113;-79
2022/11/04 19:53:23;;;;;;;47.42;26.55;;;11.70;99.90;;;;;;10404458;28;20033;-79
2022/11/04 19:58:24;;;;;;;45.03;25.83;;;11.70;99.90;;;;;;10400892;28;20034;-80
2022/11/04 20:03:24;;;;;;;49.42;26.90;;;11.60;99.90;;;;;;10399304;28;20045;-79
2022/11/04 20:08:25;;;;;;;44.97;26.55;;;11.50;99.90;;;;;;10402338;28;20381;-79
2022/11/04 20:13:45;;;;;;;51.25;28.77;;;11.50;99.90;;;;;;10398815;28;20036;-81
2022/11/04 20:19:00;;;;;;;52.25;30.75;;;11.50;99.90;;;;;;10397511;28;20041;-79
2022/11/04 20:24:03;;;;;;;60.63;32.88;;;11.50;99.90;;;;;;10403670;28;20037;-80
2022/11/04 20:29:05;;;;;;;66.53;40.85;;;11.50;99.90;;;;;;10404245;28;20037;-80
2022/11/04 20:34:07;;;;;;;58.38;34.28;;;11.50;99.90;;;;;;10402211;28;20049;-80
2022/11/04 20:39:14;;;;;;;62.45;35.78;;;11.60;99.90;;;;;;10451041;22;20057;-79
2022/11/04 20:44:16;;;;;;;70.53;37.30;;;11.60;99.90;;;;;;10444588;28;20049;-79
2022/11/04 20:49:17;;;;;;;65.63;36.22;;;11.60;99.90;;;;;;10450639;28;20493;-80
2022/11/04 20:54:17;;;;;;;67.57;39.10;;;11.50;99.90;;;;;;10449664;28;20040;-78
2022/11/04 20:59:18;;;;;;;79.22;42.25;;;11.50;99.90;;;;;;10444846;28;20054;-82
2022/11/04 21:04:20;;;;;;;77.45;42.55;;;11.50;99.90;;;;;;10456055;28;20123;-79
2022/11/04 21:09:20;;;;;;;85.28;50.05;;;11.60;99.90;;;;;;10440141;28;20453;-79
2022/11/04 21:14:21;;;;;;;84.78;48.42;;;11.50;99.90;;;;;;10440493;28;20045;-78
2022/11/04 21:19:21;;;;;;;83.28;45.80;;;11.50;99.90;;;;;;10448665;28;20558;-78
2022/11/04 21:24:22;;;;;;;82.40;46.70;;;11.50;99.90;;;;;;10452525;28;20021;-81
2022/11/04 21:29:23;;;;;;;87.90;47.92;;;11.50;99.90;;;;;;10453304;28;20035;-78
2022/11/04 21:34:23;;;;;;;108.90;59.90;;;11.50;99.90;;;;;;10452256;28;20127;-78
2022/11/04 21:39:25;;;;;;;125.35;64.97;;;11.50;99.90;;;;;;10458177;28;21074;-78
2022/11/04 21:44:25;;;;;;;114.85;58.58;;;11.40;99.90;;;;;;10446837;28;20179;-79
2022/11/04 21:49:26;;;;;;;101.75;53.33;;;11.40;99.90;;;;;;10454208;28;20028;-79
2022/11/04 21:54:26;;;;;;;98.63;52.10;;;11.40;99.90;;;;;;10451583;28;20560;-80
2022/11/04 21:59:27;;;;;;;94.38;50.45;;;11.40;99.90;;;;;;10462964;28;20037;-77
2022/11/04 22:04:28;;;;;;;97.03;57.63;;;11.40;99.90;;;;;;10450779;28;20033;-79
2022/11/04 22:09:28;;;;;;;92.55;54.92;;;11.40;99.90;;;;;;10462815;28;20027;-81
2022/11/04 22:14:29;;;;;;;88.22;47.95;;;11.40;99.90;;;;;;10460021;28;20655;-78
2022/11/04 22:19:29;;;;;;;87.88;49.55;;;11.40;99.90;;;;;;10442148;28;20036;-78
2022/11/04 22:24:30;;;;;;;81.70;47.60;;;11.50;99.90;;;;;;10450340;28;20021;-80
2022/11/04 22:29:31;;;;;;;85.15;52.13;;;11.50;99.90;;;;;;10458349;28;20033;-81
2022/11/04 22:34:31;;;;;;;81.57;45.85;;;11.50;99.90;;;;;;10470458;28;20044;-79
2022/11/04 22:39:32;;;;;;;76.50;43.83;;;11.50;99.90;;;;;;10442420;28;20824;-78
2022/11/04 22:44:33;;;;;;;104.47;54.03;;;11.50;99.90;;;;;;10454325;28;20029;-81
2022/11/04 22:49:33;;;;;;;83.75;45.08;;;11.50;99.90;;;;;;10445328;28;20413;-78
2022/11/04 22:54:34;;;;;;;77.90;42.72;;;11.60;99.90;;;;;;10462605;28;20045;-79
2022/11/04 22:59:34;;;;;;;77.80;44.60;;;11.60;99.90;;;;;;10463400;28;20399;-80
2022/11/04 23:04:36;;;;;;;88.93;50.78;;;11.50;99.90;;;;;;10446015;28;20036;-78
2022/11/04 23:18:40;;;;;;;88.60;51.63;;;11.50;99.90;;;;;;10451851;28;20484;-80
2022/11/04 23:20:17;;;;;;;100.60;52.60;;;11.40;99.90;;;;;;10446938;28;20045;-78
2022/11/04 23:25:18;;;;;;;90.60;50.15;;;11.40;99.90;;;;;;10441825;28;20037;-79
2022/11/04 23:30:21;;;;;;;94.32;50.95;;;11.40;99.90;;;;;;10462967;28;20103;-81
